createdAt,value
2022-11-07T00:00:26.545Z,78.10
2022-11-07T00:03:30.743Z,77.80
2022-11-07T00:06:33.542Z,78.40
2022-11-07T00:09:36.391Z,78.40
2022-11-07T00:12:39.204Z,78.70
2022-11-07T00:15:41.999Z,78.40
2022-11-07T00:18:46.276Z,78.90
2022-11-07T00:21:50.157Z,78.70
2022-11-07T00:24:52.956Z,78.90
2022-11-07T00:27:55.760Z,77.70
2022-11-07T00:31:00.040Z,77.80
2022-11-07T00:34:04.167Z,76.90
2022-11-07T00:37:06.983Z,77.40
2022-11-07T00:40:11.184Z,78.20
2022-11-07T00:43:14.138Z,76.50
2022-11-07T00:46:19.465Z,77.30
2022-11-07T00:49:23.628Z,77.00
2022-11-07T00:52:26.422Z,76.60
2022-11-07T00:55:29.230Z,77.30
2022-11-07T00:58:32.545Z,77.30
2022-11-07T01:01:35.920Z,76.60
2022-11-07T01:04:57.980Z,75.90
2022-11-07T01:08:00.812Z,76.20
2022-11-07T01:11:06.591Z,75.80
2022-11-07T01:14:11.471Z,76.40
2022-11-07T01:17:14.267Z,76.00
2022-11-07T01:20:18.633Z,76.10
2022-11-07T01:23:22.448Z,76.70
2022-11-07T01:26:25.320Z,76.70
2022-11-07T01:29:28.291Z,77.90
2022-11-07T01:32:31.150Z,77.60
2022-11-07T01:35:36.067Z,79.30
2022-11-07T01:38:39.833Z,79.70
2022-11-07T01:41:43.056Z,80.70
2022-11-07T01:44:52.188Z,81.40
2022-11-07T01:47:58.841Z,83.00
2022-11-07T01:51:03.374Z,82.80
2022-11-07T01:54:07.281Z,82.40
2022-11-07T01:57:16.235Z,82.50
2022-11-07T02:00:22.039Z,83.30
2022-11-07T02:03:24.866Z,83.60
2022-11-07T02:06:37.796Z,84.30
2022-11-07T02:09:41.899Z,83.60
2022-11-07T02:12:45.195Z,83.10
2022-11-07T02:15:48.101Z,83.20
2022-11-07T02:18:50.983Z,83.00
2022-11-07T02:21:59.598Z,82.80
2022-11-07T02:25:05.996Z,82.30
2022-11-07T02:28:11.372Z,82.80
2022-11-07T02:31:14.174Z,83.50
2022-11-07T02:34:16.986Z,83.80
2022-11-07T02:37:26.087Z,84.30
2022-11-07T02:40:31.565Z,85.00
2022-11-07T02:43:38.191Z,86.00
2022-11-07T02:46:41.732Z,86.00
2022-11-07T02:49:44.779Z,86.30
2022-11-07T02:52:47.701Z,86.40
2022-11-07T02:55:51.939Z,86.60
2022-11-07T02:58:54.823Z,87.40
2022-11-07T03:01:57.749Z,86.40
2022-11-07T03:05:00.660Z,86.50
2022-11-07T03:08:03.471Z,86.40
2022-11-07T03:11:08.433Z,86.20
2022-11-07T03:14:11.222Z,86.30
2022-11-07T03:17:14.056Z,86.40
2022-11-07T03:20:16.869Z,86.20
2022-11-07T03:23:19.680Z,86.50
2022-11-07T03:26:23.829Z,86.20
2022-11-07T03:29:26.631Z,86.50
2022-11-07T03:32:29.504Z,86.40
2022-11-07T03:35:32.318Z,86.80
2022-11-07T03:38:35.111Z,86.80
2022-11-07T03:41:39.254Z,86.70
2022-11-07T03:44:42.058Z,87.00
2022-11-07T03:47:46.658Z,87.20
2022-11-07T03:50:49.452Z,86.90
2022-11-07T03:53:52.260Z,86.90
2022-11-07T03:56:56.429Z,87.10
2022-11-07T03:59:59.236Z,87.00
2022-11-07T04:03:04.589Z,87.10
2022-11-07T04:06:07.968Z,87.30
2022-11-07T04:09:10.827Z,87.40
2022-11-07T04:12:32.316Z,87.30
2022-11-07T04:15:52.524Z,87.20
2022-11-07T04:18:55.366Z,87.20
2022-11-07T04:21:58.172Z,87.30
2022-11-07T04:25:00.965Z,87.10
2022-11-07T04:28:04.476Z,87.20
2022-11-07T04:31:07.520Z,87.20
2022-11-07T04:34:10.362Z,87.10
2022-11-07T04:37:13.166Z,87.30
2022-11-07T04:40:16.889Z,87.50
2022-11-07T04:43:21.061Z,87.60
2022-11-07T04:46:24.126Z,87.40
2022-11-07T04:49:26.996Z,87.70
2022-11-07T04:52:29.799Z,87.80
2022-11-07T04:55:32.703Z,88.00
2022-11-07T04:58:36.888Z,88.00
2022-11-07T05:01:39.754Z,87.70
2022-11-07T05:04:42.630Z,87.70
2022-11-07T05:07:46.914Z,87.40
2022-11-07T05:10:50.239Z,87.50
2022-11-07T05:13:54.384Z,88.20
2022-11-07T05:16:57.181Z,88.10
2022-11-07T05:20:00.030Z,88.40
2022-11-07T05:23:19.380Z,88.20
2022-11-07T05:26:22.682Z,88.20
2022-11-07T05:29:26.906Z,88.20
2022-11-07T05:32:29.718Z,88.40
2022-11-07T05:35:32.565Z,88.20
2022-11-07T05:38:35.367Z,87.90
2022-11-07T05:41:38.175Z,88.00
2022-11-07T05:44:42.311Z,88.40
2022-11-07T05:47:45.134Z,88.50
2022-11-07T05:50:47.970Z,88.10
2022-11-07T05:53:51.343Z,88.30
2022-11-07T05:56:56.820Z,88.30
2022-11-07T06:00:00.952Z,88.50
2022-11-07T06:03:03.943Z,88.40
2022-11-07T06:06:07.301Z,88.60
2022-11-07T06:09:10.335Z,88.90
2022-11-07T06:12:13.118Z,88.70
2022-11-07T06:15:17.424Z,89.10
2022-11-07T06:18:21.860Z,89.40
2022-11-07T06:21:24.672Z,89.30
2022-11-07T06:24:27.736Z,89.40
2022-11-07T06:27:31.778Z,89.60
2022-11-07T06:30:36.921Z,89.90
2022-11-07T06:33:39.734Z,89.80
2022-11-07T06:36:42.488Z,89.90
2022-11-07T06:39:45.277Z,90.00
2022-11-07T06:42:48.098Z,90.00
2022-11-07T06:45:52.210Z,90.00
2022-11-07T06:48:55.198Z,90.20
2022-11-07T06:51:57.971Z,90.20
2022-11-07T06:55:00.771Z,90.20
2022-11-07T06:58:05.467Z,90.00
2022-11-07T07:01:13.476Z,90.00
2022-11-07T07:04:16.453Z,89.90
2022-11-07T07:07:19.219Z,89.80
2022-11-07T07:10:39.209Z,89.50
2022-11-07T07:13:42.437Z,89.80
2022-11-07T07:16:46.703Z,89.30
2022-11-07T07:19:49.463Z,89.50
2022-11-07T07:22:58.970Z,89.30
2022-11-07T07:26:05.274Z,89.60
2022-11-07T07:29:08.056Z,89.10
2022-11-07T07:32:12.178Z,89.30
2022-11-07T07:35:14.975Z,89.30
2022-11-07T07:38:17.755Z,89.50
2022-11-07T07:41:21.408Z,89.30
2022-11-07T07:44:24.229Z,89.20
2022-11-07T07:47:28.350Z,89.40
2022-11-07T07:50:31.187Z,89.30
2022-11-07T07:53:33.995Z,89.20
2022-11-07T07:56:37.340Z,89.50
2022-11-07T07:59:40.118Z,89.30
2022-11-07T08:02:44.377Z,89.40
2022-11-07T08:05:54.607Z,89.10
2022-11-07T08:08:57.498Z,88.30
2022-11-07T08:12:00.269Z,88.40
2022-11-07T08:15:03.128Z,87.60
2022-11-07T08:18:07.484Z,87.60
2022-11-07T08:21:10.563Z,87.40
2022-11-07T08:24:13.579Z,87.60
2022-11-07T08:27:16.960Z,87.00
2022-11-07T08:30:20.164Z,86.40
2022-11-07T08:33:24.599Z,84.80
2022-11-07T08:36:28.220Z,83.10
2022-11-07T08:39:31.091Z,82.30
2022-11-07T08:42:33.887Z,81.40
2022-11-07T08:45:36.689Z,80.70
2022-11-07T08:48:41.748Z,79.60
2022-11-07T08:51:44.608Z,79.50
2022-11-07T08:54:47.447Z,77.70
2022-11-07T08:57:50.225Z,78.40
2022-11-07T09:00:53.179Z,77.10
2022-11-07T09:03:58.536Z,77.60
2022-11-07T09:07:01.713Z,76.30
2022-11-07T09:10:05.019Z,76.00
2022-11-07T09:13:07.806Z,76.60
2022-11-07T09:16:11.752Z,77.10
2022-11-07T09:19:15.949Z,76.80
2022-11-07T09:22:18.749Z,76.50
2022-11-07T09:25:21.572Z,76.10
2022-11-07T09:28:24.545Z,77.70
2022-11-07T09:31:27.379Z,76.50
2022-11-07T09:34:31.560Z,77.10
2022-11-07T09:37:34.405Z,74.70
2022-11-07T09:40:44.434Z,76.70
2022-11-07T09:44:13.108Z,75.70
2022-11-07T09:47:22.557Z,75.00
2022-11-07T09:50:32.606Z,74.10
2022-11-07T09:53:40.818Z,74.40
2022-11-07T09:56:45.469Z,74.50
2022-11-07T09:59:53.959Z,73.80
2022-11-07T10:02:58.974Z,74.20
2022-11-07T10:06:12.067Z,72.40
2022-11-07T10:09:20.608Z,74.40
2022-11-07T10:12:41.767Z,75.50
2022-11-07T10:15:59.403Z,74.60
2022-11-07T10:19:21.044Z,73.30
2022-11-07T10:22:39.959Z,73.20
2022-11-07T10:25:48.525Z,72.70
2022-11-07T10:28:58.348Z,71.90
2022-11-07T10:32:10.621Z,71.60
2022-11-07T10:35:20.609Z,72.00
2022-11-07T10:38:27.886Z,70.30
2022-11-07T10:41:34.292Z,69.70
2022-11-07T10:44:39.601Z,71.00
2022-11-07T10:47:42.930Z,70.40
2022-11-07T10:50:52.411Z,69.00
2022-11-07T10:53:56.542Z,69.90
2022-11-07T10:57:04.598Z,70.00
2022-11-07T11:00:23.345Z,69.40
2022-11-07T11:03:43.314Z,68.30
2022-11-07T11:06:58.235Z,67.10
2022-11-07T11:10:03.662Z,68.00
2022-11-07T11:13:06.987Z,67.40
2022-11-07T11:16:25.438Z,68.00
2022-11-07T11:19:34.917Z,68.10
2022-11-07T11:22:43.265Z,67.20
2022-11-07T11:25:49.304Z,67.50
2022-11-07T11:28:58.833Z,68.10
2022-11-07T11:32:03.110Z,68.80
2022-11-07T11:35:25.727Z,68.70
2022-11-07T11:38:31.099Z,67.90
2022-11-07T11:41:43.369Z,68.30
2022-11-07T11:44:47.424Z,65.20
2022-11-07T11:47:58.113Z,66.40
2022-11-07T11:51:05.404Z,66.50
2022-11-07T11:54:10.761Z,67.70
2022-11-07T11:57:19.589Z,65.70
2022-11-07T12:00:25.086Z,66.20
2022-11-07T12:03:50.846Z,64.80
2022-11-07T12:07:02.373Z,67.10
2022-11-07T12:10:09.112Z,65.70
2022-11-07T12:13:22.855Z,65.20
2022-11-07T12:16:32.010Z,64.10
2022-11-07T12:19:43.735Z,64.90
2022-11-07T12:22:58.164Z,61.40
2022-11-07T12:26:07.058Z,61.10
2022-11-07T12:29:24.620Z,60.60
2022-11-07T12:32:35.856Z,58.60
2022-11-07T12:35:46.515Z,59.60
2022-11-07T12:39:16.754Z,61.20
2022-11-07T12:42:33.180Z,59.60
2022-11-07T12:45:53.550Z,59.70
2022-11-07T12:49:09.298Z,60.60
2022-11-07T12:52:27.110Z,63.40
2022-11-07T12:55:37.912Z,61.40
2022-11-07T12:58:43.816Z,59.30
2022-11-07T13:01:53.174Z,58.90
2022-11-07T13:05:01.007Z,59.20
2022-11-07T13:08:09.824Z,59.70
2022-11-07T13:11:19.580Z,59.70
2022-11-07T13:14:30.031Z,58.90
2022-11-07T13:17:42.623Z,59.50
2022-11-07T13:20:45.434Z,60.70
